createdAt,value
2022-10-28T00:01:22.604Z,17.55
2022-10-28T00:04:00.221Z,15.77
2022-10-28T00:06:34.534Z,16.08
2022-10-28T00:09:03.771Z,15.45
2022-10-28T00:11:34.836Z,20.70
2022-10-28T00:14:04.012Z,20.17
2022-10-28T00:16:34.296Z,19.35
2022-10-28T00:19:03.746Z,17.67
2022-10-28T00:21:33.553Z,13.85
2022-10-28T00:24:01.398Z,20.25
2022-10-28T00:26:31.279Z,18.75
2022-10-28T00:29:01.172Z,15.75
2022-10-28T00:31:30.530Z,18.70
2022-10-28T00:34:02.878Z,24.92
2022-10-28T00:36:33.860Z,20.67
2022-10-28T00:39:03.192Z,17.77
2022-10-28T00:41:33.716Z,20.95
2022-10-28T00:44:22.600Z,17.42
2022-10-28T00:46:53.528Z,16.13
2022-10-28T00:49:30.644Z,14.95
2022-10-28T00:52:03.191Z,19.38
2022-10-28T00:54:32.023Z,21.42
2022-10-28T00:57:02.419Z,18.60
2022-10-28T00:59:35.218Z,14.68
2022-10-28T01:02:03.101Z,15.63
2022-10-28T01:04:30.816Z,11.68
2022-10-28T01:07:00.171Z,19.98
2022-10-28T01:09:27.655Z,15.15
2022-10-28T01:12:00.294Z,14.52
2022-10-28T01:15:09.593Z,20.30
2022-10-28T01:18:09.495Z,20.20
2022-10-28T01:20:49.139Z,18.15
2022-10-28T01:23:22.756Z,13.48
2022-10-28T01:26:06.852Z,13.43
2022-10-28T01:29:11.798Z,16.05
2022-10-28T01:31:39.197Z,16.65
2022-10-28T01:34:32.368Z,18.55
2022-10-28T01:37:17.501Z,20.83
2022-10-28T01:39:50.801Z,20.75
2022-10-28T01:42:35.660Z,14.07
2022-10-28T01:45:25.789Z,20.52
2022-10-28T01:48:04.005Z,15.90
2022-10-28T01:50:53.209Z,18.98
2022-10-28T01:53:27.450Z,14.82
2022-10-28T01:55:57.206Z,21.30
2022-10-28T01:58:31.699Z,20.17
2022-10-28T02:01:01.168Z,17.48
2022-10-28T02:03:28.862Z,18.27
2022-10-28T02:05:58.660Z,21.98
2022-10-28T02:08:44.641Z,18.27
2022-10-28T02:11:33.771Z,16.38
2022-10-28T02:14:23.407Z,20.58
2022-10-28T02:16:55.151Z,17.13
2022-10-28T02:19:46.846Z,20.10
2022-10-28T02:22:26.867Z,17.58
2022-10-28T02:25:03.198Z,19.63
2022-10-28T02:27:47.309Z,26.20
2022-10-28T02:30:37.505Z,22.05
2022-10-28T02:33:09.218Z,22.73
2022-10-28T02:35:41.614Z,23.92
2022-10-28T02:38:13.120Z,22.63
2022-10-28T02:40:42.845Z,21.45
2022-10-28T02:43:13.450Z,20.52
2022-10-28T02:45:45.095Z,20.60
2022-10-28T02:48:18.668Z,24.95
2022-10-28T02:50:53.943Z,15.10
2022-10-28T02:53:29.348Z,7.50
2022-10-28T02:55:59.600Z,19.00
2022-10-28T02:58:26.978Z,16.83
2022-10-28T03:00:54.369Z,21.38
2022-10-28T03:03:21.909Z,17.45
2022-10-28T03:05:49.239Z,16.88
2022-10-28T03:08:16.715Z,18.08
2022-10-28T03:10:44.035Z,18.70
2022-10-28T03:13:11.525Z,16.38
2022-10-28T03:15:39.025Z,13.50
2022-10-28T03:18:06.737Z,19.85
2022-10-28T03:20:34.154Z,18.48
2022-10-28T03:23:01.655Z,14.70
2022-10-28T03:25:29.117Z,11.43
2022-10-28T03:27:56.425Z,16.13
2022-10-28T03:30:23.805Z,11.02
2022-10-28T03:32:51.537Z,20.38
2022-10-28T03:35:19.167Z,11.85
2022-10-28T03:37:46.478Z,13.38
2022-10-28T03:40:14.116Z,21.10
2022-10-28T03:42:42.208Z,14.02
2022-10-28T03:45:10.623Z,20.25
2022-10-28T03:47:38.114Z,21.58
2022-10-28T03:50:05.883Z,20.70
2022-10-28T03:52:38.425Z,19.88
2022-10-28T03:55:06.124Z,21.45
2022-10-28T03:57:34.289Z,28.77
2022-10-28T04:00:02.088Z,25.75
2022-10-28T04:02:31.054Z,27.00
2022-10-28T04:04:58.484Z,25.73
2022-10-28T04:07:26.013Z,22.35
2022-10-28T04:09:53.473Z,24.67
2022-10-28T04:12:20.992Z,22.50
2022-10-28T04:14:48.350Z,22.25
2022-10-28T04:17:15.718Z,27.98
2022-10-28T04:19:43.034Z,27.92
2022-10-28T04:22:10.488Z,30.48
2022-10-28T04:24:37.832Z,37.13
2022-10-28T04:27:07.452Z,23.42
2022-10-28T04:29:34.965Z,34.17
2022-10-28T04:32:02.626Z,26.33
2022-10-28T04:34:30.231Z,27.55
2022-10-28T04:36:57.672Z,35.08
2022-10-28T04:39:25.156Z,26.65
2022-10-28T04:41:52.833Z,31.58
2022-10-28T04:44:20.412Z,33.33
2022-10-28T04:46:47.905Z,26.25
2022-10-28T04:49:15.371Z,36.30
2022-10-28T04:51:43.031Z,37.50
2022-10-28T04:54:10.531Z,40.85
2022-10-28T04:56:38.010Z,36.22
2022-10-28T04:59:05.669Z,36.65
2022-10-28T05:01:33.212Z,41.90
2022-10-28T05:04:00.674Z,38.97
2022-10-28T05:06:28.103Z,36.95
2022-10-28T05:09:02.239Z,35.42
2022-10-28T05:11:30.588Z,33.45
2022-10-28T05:14:03.325Z,31.98
2022-10-28T05:16:32.129Z,43.17
2022-10-28T05:19:01.865Z,40.42
2022-10-28T05:21:29.441Z,37.58
2022-10-28T05:23:56.871Z,43.75
2022-10-28T05:26:24.458Z,33.83
2022-10-28T05:28:53.395Z,40.65
2022-10-28T05:31:21.403Z,45.38
2022-10-28T05:33:50.393Z,33.92
2022-10-28T05:36:18.011Z,32.67
2022-10-28T05:38:46.298Z,39.40
2022-10-28T05:41:13.972Z,44.50
2022-10-28T05:43:41.561Z,43.67
2022-10-28T05:46:10.918Z,34.17
2022-10-28T05:48:40.543Z,42.80
2022-10-28T05:51:09.363Z,39.30
2022-10-28T05:53:37.084Z,45.67
2022-10-28T05:56:05.356Z,42.05
2022-10-28T05:58:33.174Z,40.08
2022-10-28T06:01:01.153Z,37.20
2022-10-28T06:03:31.236Z,39.83
2022-10-28T06:06:01.823Z,36.13
2022-10-28T06:08:30.927Z,39.63
2022-10-28T06:10:57.224Z,31.25
2022-10-28T06:13:27.053Z,37.38
2022-10-28T06:15:56.542Z,37.65
2022-10-28T06:18:28.442Z,36.15
2022-10-28T06:20:59.911Z,28.95
2022-10-28T06:23:28.386Z,33.40
2022-10-28T06:26:00.733Z,28.80
2022-10-28T06:28:30.635Z,31.58
2022-10-28T06:33:49.551Z,31.83
2022-10-28T06:36:17.553Z,38.15
2022-10-28T06:38:46.315Z,33.50
2022-10-28T06:41:13.894Z,26.73
2022-10-28T06:43:41.861Z,24.40
2022-10-28T06:46:10.336Z,29.67
2022-10-28T06:48:46.682Z,32.03
2022-10-28T06:51:14.928Z,30.83
2022-10-28T06:53:43.963Z,27.42
2022-10-28T06:56:15.116Z,24.70
2022-10-28T06:58:55.985Z,34.58
2022-10-28T07:01:23.539Z,30.55
2022-10-28T07:03:51.212Z,33.72
2022-10-28T07:06:18.751Z,27.73
2022-10-28T07:08:46.404Z,36.97
2022-10-28T07:11:13.865Z,30.02
2022-10-28T07:13:45.415Z,30.70
2022-10-28T07:16:16.012Z,34.72
2022-10-28T07:18:44.053Z,30.08
2022-10-28T07:21:11.591Z,22.33
2022-10-28T07:23:38.974Z,30.45
2022-10-28T07:26:06.745Z,28.33
2022-10-28T07:28:34.303Z,30.33
2022-10-28T07:31:03.403Z,24.38
2022-10-28T07:33:31.367Z,22.00
2022-10-28T07:35:58.902Z,25.45
2022-10-28T07:38:29.940Z,30.85
2022-10-28T07:40:57.816Z,25.92
2022-10-28T07:43:26.281Z,20.88
2022-10-28T07:45:58.392Z,26.77
2022-10-28T07:48:26.220Z,21.38
2022-10-28T07:50:53.864Z,25.27
2022-10-28T07:53:22.679Z,21.77
2022-10-28T07:56:01.132Z,27.50
2022-10-28T07:58:29.854Z,17.83
2022-10-28T08:00:58.511Z,20.17
2022-10-28T08:03:38.010Z,23.42
2022-10-28T08:06:13.132Z,18.50
2022-10-28T08:08:41.405Z,20.98
2022-10-28T08:11:16.887Z,16.02
2022-10-28T08:13:44.426Z,20.60
2022-10-28T08:16:12.383Z,17.95
2022-10-28T08:18:41.973Z,19.05
2022-10-28T08:21:13.934Z,17.77
2022-10-28T08:23:48.526Z,20.13
2022-10-28T08:26:17.594Z,21.65
2022-10-28T08:28:45.830Z,18.45
2022-10-28T08:31:15.173Z,14.90
2022-10-28T08:33:45.863Z,11.07
2022-10-28T08:36:17.048Z,8.30
2022-10-28T08:38:47.752Z,16.88
2022-10-28T08:41:49.031Z,16.60
2022-10-28T08:44:25.079Z,15.90
2022-10-28T08:47:23.888Z,17.17
2022-10-28T08:49:59.441Z,15.63
2022-10-28T08:52:40.887Z,18.10
2022-10-28T08:55:23.720Z,24.05
2022-10-28T08:58:06.640Z,48.80
2022-10-28T09:00:39.752Z,16.25
2022-10-28T09:03:25.831Z,16.58
2022-10-28T09:06:06.217Z,14.77
2022-10-28T09:08:45.243Z,17.08
2022-10-28T09:11:48.186Z,15.52
2022-10-28T09:14:44.427Z,13.85
2022-10-28T09:17:22.055Z,18.00
2022-10-28T09:20:43.604Z,21.75
2022-10-28T09:23:37.440Z,16.05
2022-10-28T09:26:33.814Z,15.35
2022-10-28T09:29:41.877Z,16.63
2022-10-28T09:32:43.792Z,14.45
2022-10-28T09:35:16.246Z,19.90
2022-10-28T09:38:12.740Z,18.10
2022-10-28T09:40:45.034Z,16.80
2022-10-28T09:43:33.195Z,19.38
2022-10-28T09:46:14.423Z,18.70
2022-10-28T09:48:48.462Z,14.43
2022-10-28T09:51:49.693Z,20.38
2022-10-28T09:54:18.207Z,21.48
2022-10-28T09:56:47.250Z,14.60
2022-10-28T09:59:16.144Z,17.58
2022-10-28T10:01:48.067Z,23.00
2022-10-28T10:04:22.386Z,19.17
2022-10-28T10:06:56.304Z,18.20
2022-10-28T10:09:29.460Z,12.30
2022-10-28T10:12:04.142Z,14.98
2022-10-28T10:14:37.699Z,15.68
2022-10-28T10:17:52.195Z,17.58
2022-10-28T10:20:22.062Z,11.80
2022-10-28T10:22:51.311Z,13.65
2022-10-28T10:25:19.051Z,13.18
2022-10-28T10:28:01.250Z,19.30
2022-10-28T10:30:53.773Z,18.63
2022-10-28T10:33:31.043Z,13.80
2022-10-28T10:36:12.213Z,16.25
2022-10-28T10:38:57.503Z,23.45
2022-10-28T10:41:38.377Z,19.35
2022-10-28T10:44:34.149Z,15.05
2022-10-28T10:47:06.476Z,22.23
2022-10-28T10:49:36.617Z,16.17
2022-10-28T10:52:08.109Z,14.35
2022-10-28T10:54:37.565Z,15.75
2022-10-28T10:57:20.914Z,15.65
2022-10-28T10:59:53.055Z,12.60
2022-10-28T11:02:32.635Z,14.93
2022-10-28T11:05:03.761Z,12.65
2022-10-28T11:07:32.579Z,16.25
2022-10-28T11:10:00.847Z,18.48
2022-10-28T11:12:37.293Z,16.88
2022-10-28T11:15:23.660Z,14.13
2022-10-28T11:18:20.873Z,19.08
2022-10-28T11:21:08.441Z,16.90
2022-10-28T11:23:54.763Z,16.73
2022-10-28T11:26:24.112Z,19.05
2022-10-28T11:29:01.124Z,21.88
2022-10-28T11:31:57.884Z,20.10
2022-10-28T11:34:25.315Z,15.32
2022-10-28T11:37:19.062Z,19.40
2022-10-28T11:40:06.368Z,19.80
2022-10-28T11:43:09.220Z,15.13
2022-10-28T11:46:06.206Z,13.63
2022-10-28T11:49:24.588Z,20.98
2022-10-28T11:52:01.026Z,14.98
2022-10-28T11:55:06.288Z,18.83
2022-10-28T11:57:59.538Z,11.27
2022-10-28T12:00:48.337Z,19.63
2022-10-28T12:03:38.424Z,17.40
2022-10-28T12:06:30.103Z,16.60
2022-10-28T12:09:45.569Z,14.93
2022-10-28T12:12:48.639Z,25.77
2022-10-28T12:15:30.694Z,21.23
2022-10-28T12:18:11.450Z,18.67
2022-10-28T12:21:20.190Z,15.95
2022-10-28T12:23:49.459Z,17.27
2022-10-28T12:26:19.387Z,16.73
2022-10-28T12:28:57.516Z,18.35
2022-10-28T12:31:29.326Z,22.95
2022-10-28T12:34:01.054Z,21.95
2022-10-28T12:36:28.909Z,26.08
2022-10-28T12:39:19.532Z,13.63
2022-10-28T12:42:14.781Z,21.25
2022-10-28T12:44:43.701Z,17.33
2022-10-28T12:47:39.186Z,19.83
2022-10-28T12:50:13.719Z,22.88
2022-10-28T12:53:06.502Z,19.83
2022-10-28T12:55:42.272Z,18.30
2022-10-28T12:58:27.246Z,23.73
2022-10-28T13:01:01.448Z,19.88
2022-10-28T13:03:29.009Z,12.25
2022-10-28T13:06:11.585Z,21.23
2022-10-28T13:08:41.987Z,22.17
2022-10-28T13:11:35.618Z,21.02
2022-10-28T13:17:27.552Z,15.13
2022-10-28T13:20:27.219Z,16.63
2022-10-28T13:23:15.843Z,20.45
2022-10-28T13:26:06.702Z,14.50
2022-10-28T13:28:41.513Z,25.70
2022-10-28T13:31:09.819Z,15.38
2022-10-28T13:33:39.200Z,16.80
2022-10-28T13:36:25.642Z,15.48
2022-10-28T13:39:02.971Z,21.08
2022-10-28T13:41:32.102Z,21.20
2022-10-28T13:44:10.380Z,20.42
2022-10-28T13:46:59.848Z,21.60
2022-10-28T13:49:27.150Z,24.02
2022-10-28T13:52:05.205Z,17.17
2022-10-28T13:54:44.784Z,17.70
2022-10-28T13:57:33.662Z,21.23
2022-10-28T14:00:06.045Z,21.02
2022-10-28T14:02:47.055Z,18.92
2022-10-28T14:05:17.407Z,29.73
2022-10-28T14:07:55.419Z,25.83
2022-10-28T14:10:28.412Z,29.40
2022-10-28T14:13:02.650Z,27.58
2022-10-28T14:15:38.778Z,27.52
2022-10-28T14:18:42.472Z,39.10
2022-10-28T14:21:10.932Z,32.85
2022-10-28T14:23:44.390Z,35.92
2022-10-28T14:26:11.762Z,32.83
2022-10-28T14:28:39.058Z,48.80
2022-10-28T14:31:12.275Z,34.92
2022-10-28T14:34:11.433Z,42.03
2022-10-28T14:36:47.719Z,41.65
2022-10-28T14:39:42.363Z,36.90
2022-10-28T14:42:45.274Z,46.45
2022-10-28T14:45:34.660Z,53.08
2022-10-28T14:48:25.802Z,51.20
2022-10-28T14:50:55.138Z,42.72
2022-10-28T14:53:36.489Z,56.88
2022-10-28T14:56:06.557Z,44.22
2022-10-28T14:58:42.400Z,36.72
2022-10-28T15:01:24.324Z,46.78
2022-10-28T15:04:01.793Z,50.78
2022-10-28T15:06:42.877Z,42.47
2022-10-28T15:09:30.021Z,51.20
2022-10-28T15:12:01.070Z,49.00
2022-10-28T15:14:30.823Z,51.25
2022-10-28T15:17:00.644Z,41.45
2022-10-28T15:19:29.597Z,45.10
2022-10-28T15:22:04.951Z,46.42
2022-10-28T15:24:33.129Z,45.88
2022-10-28T15:27:00.790Z,39.65
2022-10-28T15:29:28.886Z,39.88
2022-10-28T15:32:21.689Z,39.85
2022-10-28T15:34:49.605Z,33.10
2022-10-28T15:37:19.324Z,35.90
2022-10-28T15:39:47.350Z,36.55
2022-10-28T15:42:44.689Z,37.50
2022-10-28T15:45:26.781Z,34.83
2022-10-28T15:47:56.556Z,38.70
2022-10-28T15:50:26.683Z,31.95
2022-10-28T15:53:41.662Z,35.00
2022-10-28T15:56:18.903Z,47.80
2022-10-28T15:59:13.923Z,39.25
2022-10-28T16:01:41.753Z,36.15
2022-10-28T16:04:27.265Z,30.67
2022-10-28T16:06:58.669Z,42.08
2022-10-28T16:09:35.366Z,36.40
2022-10-28T16:12:12.672Z,42.45
2022-10-28T16:14:47.147Z,45.30
2022-10-28T16:17:17.723Z,28.92
2022-10-28T16:19:54.839Z,24.60
2022-10-28T16:22:24.349Z,34.40
2022-10-28T16:24:53.389Z,34.97
2022-10-28T16:27:31.398Z,34.65
2022-10-28T16:29:59.057Z,39.85
2022-10-28T16:32:35.422Z,36.72
2022-10-28T16:35:04.189Z,36.95
2022-10-28T16:37:34.482Z,29.75
2022-10-28T16:40:02.419Z,37.35
2022-10-28T16:42:30.477Z,28.60
2022-10-28T16:44:58.265Z,29.83
2022-10-28T16:47:27.018Z,33.05
2022-10-28T16:49:57.692Z,29.23
2022-10-28T16:52:30.425Z,28.30
2022-10-28T16:54:58.861Z,29.48
2022-10-28T16:57:27.134Z,27.65
2022-10-28T16:59:55.094Z,24.23
2022-10-28T17:02:31.648Z,30.85
2022-10-28T17:05:01.204Z,29.73
2022-10-28T17:07:29.429Z,25.85
2022-10-28T17:09:57.450Z,27.30
2022-10-28T17:12:27.114Z,29.88
2022-10-28T17:14:54.612Z,31.98
2022-10-28T17:17:22.105Z,30.63
2022-10-28T17:19:49.822Z,31.05
2022-10-28T17:22:17.324Z,28.83
2022-10-28T17:24:44.899Z,34.45
2022-10-28T17:27:13.075Z,58.35
2022-10-28T17:29:40.569Z,50.80
2022-10-28T17:32:11.491Z,50.47
2022-10-28T17:34:38.924Z,54.75
2022-10-28T17:37:07.871Z,71.57
2022-10-28T17:39:35.707Z,49.33
2022-10-28T17:42:03.889Z,72.65
2022-10-28T17:44:31.434Z,58.42
2022-10-28T17:46:58.861Z,81.35
2022-10-28T17:49:26.464Z,85.57
2022-10-28T17:51:54.054Z,79.20
2022-10-28T17:54:21.583Z,189.98
2022-10-28T17:56:51.402Z,179.90
2022-10-28T17:59:19.645Z,364.75
2022-10-28T18:01:47.267Z,234.73
2022-10-28T18:04:15.005Z,390.20
2022-10-28T18:06:42.416Z,291.60
2022-10-28T18:09:13.417Z,247.90
2022-10-28T18:11:41.112Z,198.40
2022-10-28T18:14:08.658Z,192.55
2022-10-28T18:16:37.315Z,143.15
2022-10-28T18:19:06.202Z,170.75
2022-10-28T18:21:34.551Z,56.65
2022-10-28T18:24:04.953Z,41.15
2022-10-28T18:26:34.585Z,34.95
2022-10-28T18:29:04.416Z,41.92
2022-10-28T18:31:33.281Z,30.45
2022-10-28T18:34:02.023Z,26.02
2022-10-28T18:36:34.539Z,14.02
2022-10-28T18:39:07.165Z,13.75
2022-10-28T18:41:41.899Z,10.00
2022-10-28T18:44:13.487Z,7.53
2022-10-28T18:46:41.660Z,8.88
2022-10-28T18:49:09.122Z,7.03
2022-10-28T18:51:37.626Z,7.78
2022-10-28T18:54:05.503Z,7.47
2022-10-28T18:56:34.587Z,4.82
2022-10-28T18:59:04.163Z,5.05
2022-10-28T19:01:32.501Z,3.30
2022-10-28T19:04:02.759Z,5.93
2022-10-28T19:06:33.517Z,2.35
2022-10-28T19:09:04.607Z,3.30
2022-10-28T19:11:34.075Z,4.35
2022-10-28T19:14:06.265Z,4.75
2022-10-28T19:16:34.999Z,6.05
2022-10-28T19:19:05.088Z,6.88
2022-10-28T19:21:34.914Z,8.70
2022-10-28T19:24:02.838Z,7.22
2022-10-28T19:26:32.172Z,6.43
2022-10-28T19:28:59.787Z,7.15
2022-10-28T19:31:27.983Z,7.82
2022-10-28T19:33:56.078Z,5.47
2022-10-28T19:36:25.926Z,5.05
2022-10-28T19:38:54.434Z,5.32
2022-10-28T19:41:24.360Z,4.93
2022-10-28T19:43:58.491Z,5.32
2022-10-28T19:46:28.610Z,4.57
2022-10-28T19:48:58.569Z,4.28
2022-10-28T19:51:29.219Z,3.58
2022-10-28T19:53:58.959Z,4.00
2022-10-28T19:56:27.981Z,3.92
2022-10-28T19:59:00.000Z,3.10
2022-10-28T20:01:29.872Z,3.80
2022-10-28T20:03:57.838Z,4.72
2022-10-28T20:06:28.264Z,7.47
2022-10-28T20:08:55.680Z,7.03
2022-10-28T20:11:26.644Z,9.10
2022-10-28T20:13:56.692Z,9.05
2022-10-28T20:16:25.357Z,9.75
2022-10-28T20:18:55.173Z,11.18
2022-10-28T20:21:24.416Z,10.45
2022-10-28T20:23:54.293Z,11.85
2022-10-28T20:26:33.021Z,12.32
2022-10-28T20:29:03.913Z,12.23
2022-10-28T20:31:33.133Z,16.60
2022-10-28T20:34:04.231Z,18.08
2022-10-28T20:36:34.644Z,19.33
2022-10-28T20:39:13.808Z,28.80
2022-10-28T20:41:43.164Z,23.15
2022-10-28T20:44:11.151Z,22.23
2022-10-28T20:46:39.330Z,34.17
2022-10-28T20:49:08.773Z,41.42
2022-10-28T20:51:37.150Z,46.00
2022-10-28T20:54:04.762Z,43.15
2022-10-28T20:56:36.537Z,38.33
2022-10-28T20:59:04.558Z,38.88
2022-10-28T21:01:35.426Z,40.28
2022-10-28T21:04:05.810Z,67.13
2022-10-28T21:06:33.556Z,58.65
2022-10-28T21:09:02.795Z,54.00
2022-10-28T21:11:30.361Z,75.72
2022-10-28T21:13:59.699Z,68.85
2022-10-28T21:16:28.636Z,57.13
2022-10-28T21:18:56.394Z,80.93
2022-10-28T21:21:25.416Z,77.88
2022-10-28T21:23:53.283Z,66.85
2022-10-28T21:26:20.902Z,120.57
2022-10-28T21:28:52.496Z,73.75
2022-10-28T21:31:21.764Z,64.88
2022-10-28T21:36:19.777Z,90.22
2022-10-28T21:38:47.571Z,72.55
2022-10-28T21:41:18.654Z,58.42
2022-10-28T21:43:49.098Z,43.78
2022-10-28T21:46:18.220Z,65.65
2022-10-28T21:48:46.091Z,59.88
2022-10-28T21:51:15.588Z,90.70
2022-10-28T21:53:44.877Z,78.40
2022-10-28T21:56:20.217Z,85.25
2022-10-28T21:58:49.352Z,76.88
2022-10-28T22:01:20.599Z,75.32
2022-10-28T22:03:48.730Z,78.65
2022-10-28T22:06:16.492Z,73.72
2022-10-28T22:08:44.392Z,60.47
2022-10-28T22:11:20.404Z,70.32
2022-10-28T22:13:49.084Z,73.93
2022-10-28T22:16:18.242Z,141.50
2022-10-28T22:18:46.106Z,87.90
2022-10-28T22:21:25.196Z,119.75
2022-10-28T22:23:53.251Z,69.85
2022-10-28T22:26:26.054Z,91.40
2022-10-28T22:28:53.776Z,79.10
2022-10-28T22:31:24.492Z,85.47
2022-10-28T22:33:53.655Z,144.95
2022-10-28T22:36:23.343Z,115.70
2022-10-28T22:38:51.818Z,73.40
2022-10-28T22:41:24.859Z,188.63
2022-10-28T22:43:55.216Z,207.82
2022-10-28T22:46:23.896Z,344.40
2022-10-28T22:48:51.504Z,350.52
2022-10-28T22:51:19.547Z,412.45
2022-10-28T22:53:47.565Z,219.40
2022-10-28T22:56:21.306Z,509.63
2022-10-28T22:58:52.266Z,213.55
2022-10-28T23:01:21.265Z,245.90
2022-10-28T23:03:50.583Z,111.60
2022-10-28T23:06:20.220Z,408.70
2022-10-28T23:08:48.496Z,260.95
2022-10-28T23:11:18.598Z,521.67
2022-10-28T23:13:46.879Z,426.60
2022-10-28T23:16:16.197Z,607.03
2022-10-28T23:18:44.370Z,506.58
2022-10-28T23:21:17.954Z,481.00
2022-10-28T23:23:51.406Z,409.95
2022-10-28T23:26:21.960Z,255.48
2022-10-28T23:28:57.952Z,318.60
2022-10-28T23:31:26.363Z,254.88
2022-10-28T23:33:55.463Z,228.73
2022-10-28T23:36:23.423Z,310.40
2022-10-28T23:38:51.071Z,289.17
2022-10-28T23:41:19.776Z,471.95
2022-10-28T23:43:49.671Z,344.38
2022-10-28T23:46:17.874Z,269.25
2022-10-28T23:48:46.307Z,631.28
2022-10-28T23:51:14.235Z,244.27
2022-10-28T23:53:42.088Z,303.50
2022-10-28T23:56:09.680Z,292.13
2022-10-28T23:58:37.424Z,368.00
